createdAt,value
2019-03-28T00:00:27.116Z,1024.48
2019-03-28T00:01:27.011Z,1024.49
2019-03-28T00:02:26.906Z,1024.47
2019-03-28T00:03:27.094Z,1024.45
2019-03-28T00:04:26.702Z,1024.47
2019-03-28T00:05:26.595Z,1024.47
2019-03-28T00:06:26.491Z,1024.46
2019-03-28T00:07:26.386Z,1024.46
2019-03-28T00:08:26.284Z,1024.48
2019-03-28T00:09:26.178Z,1024.44
2019-03-28T00:10:26.075Z,1024.49
2019-03-28T00:11:25.970Z,1024.46
2019-03-28T00:12:25.872Z,1024.47
2019-03-28T00:13:25.762Z,1024.48
2019-03-28T00:14:25.689Z,1024.48
2019-03-28T00:15:25.628Z,1024.47
2019-03-28T00:16:25.457Z,1024.43
2019-03-28T00:17:25.349Z,1024.41
2019-03-28T00:18:25.244Z,1024.44
2019-03-28T00:19:25.140Z,1024.45
2019-03-28T00:20:25.036Z,1024.42
2019-03-28T00:21:24.930Z,1024.38
2019-03-28T00:22:24.828Z,1024.43
2019-03-28T00:23:24.726Z,1024.40
2019-03-28T00:24:24.622Z,1024.41
2019-03-28T00:25:24.518Z,1024.38
2019-03-28T00:26:29.937Z,1024.39
2019-03-28T00:27:24.310Z,1024.37
2019-03-28T00:28:24.205Z,1024.37
2019-03-28T00:29:24.101Z,1024.40
2019-03-28T00:30:23.999Z,1024.36
2019-03-28T00:31:23.896Z,1024.37
2019-03-28T00:32:23.791Z,1024.36
2019-03-28T00:33:23.687Z,1024.40
2019-03-28T00:34:23.604Z,1024.36
2019-03-28T00:35:23.482Z,1024.39
2019-03-28T00:36:23.375Z,1024.40
2019-03-28T00:37:23.272Z,1024.41
2019-03-28T00:38:23.170Z,1024.42
2019-03-28T00:39:23.063Z,1024.41
2019-03-28T00:40:22.967Z,1024.40
2019-03-28T00:41:22.855Z,1024.44
2019-03-28T00:42:22.753Z,1024.42
2019-03-28T00:43:22.650Z,1024.39
2019-03-28T00:44:22.544Z,1024.35
2019-03-28T00:45:22.441Z,1024.41
2019-03-28T00:46:22.339Z,1024.37
2019-03-28T00:47:22.234Z,1024.40
2019-03-28T00:48:22.135Z,1024.37
2019-03-28T00:49:22.027Z,1024.39
2019-03-28T00:50:21.926Z,1024.40
2019-03-28T00:51:21.820Z,1024.39
2019-03-28T00:52:21.716Z,1024.41
2019-03-28T00:53:21.641Z,1024.37
2019-03-28T00:54:21.587Z,1024.42
2019-03-28T00:55:21.403Z,1024.39
2019-03-28T00:56:21.302Z,1024.38
2019-03-28T00:57:21.196Z,1024.41
2019-03-28T00:58:21.093Z,1024.42
2019-03-28T00:59:20.993Z,1024.43
2019-03-28T01:00:20.889Z,1024.40
2019-03-28T01:01:20.786Z,1024.39
2019-03-28T01:02:21.176Z,1024.43
2019-03-28T01:03:20.578Z,1024.43
2019-03-28T01:04:20.473Z,1024.42
2019-03-28T01:05:20.367Z,1024.42
2019-03-28T01:06:20.266Z,1024.40
2019-03-28T01:07:20.160Z,1024.45
2019-03-28T01:08:20.060Z,1024.44
2019-03-28T01:09:19.956Z,1024.41
2019-03-28T01:10:19.849Z,1024.45
2019-03-28T01:11:19.747Z,1024.41
2019-03-28T01:12:19.642Z,1024.39
2019-03-28T01:13:19.566Z,1024.41
2019-03-28T01:14:19.438Z,1024.40
2019-03-28T01:15:19.336Z,1024.39
2019-03-28T01:16:19.236Z,1024.40
2019-03-28T01:17:19.125Z,1024.36
2019-03-28T01:18:19.019Z,1024.38
2019-03-28T01:19:18.917Z,1024.38
2019-03-28T01:20:18.814Z,1024.36
2019-03-28T01:21:18.714Z,1024.38
2019-03-28T01:22:18.605Z,1024.39
2019-03-28T01:23:18.501Z,1024.42
2019-03-28T01:24:18.398Z,1024.38
2019-03-28T01:25:18.293Z,1024.34
2019-03-28T01:26:18.371Z,1024.37
2019-03-28T01:27:18.090Z,1024.35
2019-03-28T01:28:17.983Z,1024.39
2019-03-28T01:29:17.878Z,1024.39
2019-03-28T01:30:17.776Z,1024.38
2019-03-28T01:31:17.672Z,1024.39
2019-03-28T01:32:17.602Z,1024.36
2019-03-28T01:33:17.750Z,1024.40
2019-03-28T01:34:17.362Z,1024.36
2019-03-28T01:35:17.257Z,1024.37
2019-03-28T01:36:17.155Z,1024.38
2019-03-28T01:37:17.051Z,1024.38
2019-03-28T01:38:16.949Z,1024.36
2019-03-28T01:39:17.139Z,1024.34
2019-03-28T01:40:16.743Z,1024.35
2019-03-28T01:41:16.633Z,1024.38
2019-03-28T01:42:16.530Z,1024.34
2019-03-28T01:43:16.430Z,1024.36
2019-03-28T01:44:16.430Z,1024.31
2019-03-28T01:45:16.219Z,1024.34
2019-03-28T01:46:16.117Z,1024.35
2019-03-28T01:47:16.012Z,1024.36
2019-03-28T01:48:15.908Z,1024.37
2019-03-28T01:49:15.804Z,1024.40
2019-03-28T01:50:15.701Z,1024.40
2019-03-28T01:51:15.594Z,1024.37
2019-03-28T01:52:15.515Z,1024.40
2019-03-28T01:53:15.388Z,1024.39
2019-03-28T01:54:15.286Z,1024.41
2019-03-28T01:55:15.182Z,1024.42
2019-03-28T01:56:15.077Z,1024.40
2019-03-28T01:57:14.975Z,1024.38
2019-03-28T01:58:14.871Z,1024.40
2019-03-28T01:59:14.767Z,1024.42
2019-03-28T02:00:14.673Z,1024.41
2019-03-28T02:01:14.559Z,1024.43
2019-03-28T02:02:14.457Z,1024.44
2019-03-28T02:03:14.353Z,1024.45
2019-03-28T02:04:14.249Z,1024.45
2019-03-28T02:05:14.146Z,1024.45
2019-03-28T02:06:14.041Z,1024.40
2019-03-28T02:07:13.939Z,1024.42
2019-03-28T02:08:13.835Z,1024.41
2019-03-28T02:09:13.731Z,1024.43
2019-03-28T02:10:13.625Z,1024.39
2019-03-28T02:11:13.563Z,1024.39
2019-03-28T02:12:13.490Z,1024.39
2019-03-28T02:13:13.315Z,1024.40
2019-03-28T02:14:13.211Z,1024.40
2019-03-28T02:15:13.108Z,1024.41
2019-03-28T02:16:13.008Z,1024.41
2019-03-28T02:17:12.899Z,1024.43
2019-03-28T02:18:12.795Z,1024.42
2019-03-28T02:19:12.992Z,1024.39
2019-03-28T02:20:12.589Z,1024.39
2019-03-28T02:21:12.486Z,1024.45
2019-03-28T02:22:12.379Z,1024.48
2019-03-28T02:23:12.278Z,1024.48
2019-03-28T02:24:12.174Z,1024.45
2019-03-28T02:25:12.068Z,1024.50
2019-03-28T02:26:11.966Z,1024.49
2019-03-28T02:27:23.317Z,1024.51
2019-03-28T02:28:11.759Z,1024.52
2019-03-28T02:29:11.653Z,1024.49
2019-03-28T02:30:11.620Z,1024.50
2019-03-28T02:31:11.527Z,1024.50
2019-03-28T02:32:11.353Z,1024.52
2019-03-28T02:33:11.239Z,1024.53
2019-03-28T02:34:11.136Z,1024.53
2019-03-28T02:35:11.030Z,1024.51
2019-03-28T02:36:10.931Z,1024.52
2019-03-28T02:37:10.824Z,1024.51
2019-03-28T02:38:10.724Z,1024.51
2019-03-28T02:39:10.616Z,1024.48
2019-03-28T02:40:10.517Z,1024.47
2019-03-28T02:41:10.411Z,1024.50
2019-03-28T02:42:10.306Z,1024.53
2019-03-28T02:43:10.203Z,1024.49
2019-03-28T02:44:10.261Z,1024.50
2019-03-28T02:45:10.003Z,1024.51
2019-03-28T02:46:09.888Z,1024.54
2019-03-28T02:47:09.812Z,1024.51
2019-03-28T02:48:09.688Z,1024.48
2019-03-28T02:49:09.581Z,1024.56
2019-03-28T02:50:09.505Z,1024.50
2019-03-28T02:51:09.449Z,1024.52
2019-03-28T02:52:09.266Z,1024.50
2019-03-28T02:53:09.162Z,1024.54
2019-03-28T02:54:09.060Z,1024.55
2019-03-28T02:55:08.958Z,1024.51
2019-03-28T02:56:08.872Z,1024.52
2019-03-28T02:57:08.749Z,1024.57
2019-03-28T02:58:08.647Z,1024.60
2019-03-28T02:59:08.540Z,1024.60
2019-03-28T03:00:08.447Z,1024.59
2019-03-28T03:01:08.331Z,1024.59
2019-03-28T03:02:08.231Z,1024.62
2019-03-28T03:03:08.126Z,1024.61
2019-03-28T03:04:08.023Z,1024.57
2019-03-28T03:05:07.920Z,1024.55
2019-03-28T03:06:07.811Z,1024.55
2019-03-28T03:07:07.714Z,1024.56
2019-03-28T03:08:07.870Z,1024.58
2019-03-28T03:09:07.502Z,1024.55
2019-03-28T03:10:07.428Z,1024.55
2019-03-28T03:11:07.299Z,1024.52
2019-03-28T03:12:07.190Z,1024.54
2019-03-28T03:13:07.087Z,1024.59
2019-03-28T03:14:06.987Z,1024.56
2019-03-28T03:15:06.888Z,1024.57
2019-03-28T03:16:06.775Z,1024.54
2019-03-28T03:17:06.671Z,1024.58
2019-03-28T03:18:07.739Z,1024.59
2019-03-28T03:19:06.465Z,1024.55
2019-03-28T03:20:06.363Z,1024.54
2019-03-28T03:21:06.258Z,1024.52
2019-03-28T03:22:06.163Z,1024.58
2019-03-28T03:23:06.050Z,1024.57
2019-03-28T03:24:05.949Z,1024.55
2019-03-28T03:25:05.840Z,1024.58
2019-03-28T03:26:05.736Z,1024.55
2019-03-28T03:27:05.634Z,1024.58
2019-03-28T03:28:05.531Z,1024.56
2019-03-28T03:29:05.459Z,1024.56
2019-03-28T03:30:05.395Z,1024.58
2019-03-28T03:31:05.221Z,1024.60
2019-03-28T03:32:05.120Z,1024.61
2019-03-28T03:33:05.014Z,1024.64
2019-03-28T03:34:05.269Z,1024.58
2019-03-28T03:35:04.818Z,1024.62
2019-03-28T03:36:04.701Z,1024.62
2019-03-28T03:37:04.596Z,1024.55
2019-03-28T03:38:04.492Z,1024.60
2019-03-28T03:39:04.392Z,1024.57
2019-03-28T03:40:04.285Z,1024.59
2019-03-28T03:41:04.182Z,1024.57
2019-03-28T03:42:04.078Z,1024.55
2019-03-28T03:43:03.975Z,1024.61
2019-03-28T03:44:03.870Z,1024.60
2019-03-28T03:45:03.770Z,1024.54
2019-03-28T03:46:03.663Z,1024.57
2019-03-28T03:47:03.560Z,1024.56
2019-03-28T03:48:03.458Z,1024.58
2019-03-28T03:49:03.407Z,1024.58
2019-03-28T03:50:03.256Z,1024.59
2019-03-28T03:51:03.144Z,1024.61
2019-03-28T03:52:03.041Z,1024.58
2019-03-28T03:53:02.956Z,1024.57
2019-03-28T03:54:02.836Z,1024.59
2019-03-28T03:55:02.737Z,1024.59
2019-03-28T03:56:02.624Z,1024.65
2019-03-28T03:57:02.522Z,1024.58
2019-03-28T03:58:15.208Z,1024.64
2019-03-28T03:59:02.315Z,1024.59
2019-03-28T04:00:02.232Z,1024.65
2019-03-28T04:01:02.111Z,1024.64
2019-03-28T04:02:02.001Z,1024.62
2019-03-28T04:03:02.979Z,1024.68
2019-03-28T04:04:01.796Z,1024.62
2019-03-28T04:05:01.689Z,1024.63
2019-03-28T04:06:01.590Z,1024.68
2019-03-28T04:07:01.486Z,1024.69
2019-03-28T04:08:01.414Z,1024.70
2019-03-28T04:09:01.356Z,1024.71
2019-03-28T04:10:01.181Z,1024.69
2019-03-28T04:11:01.078Z,1024.68
2019-03-28T04:12:00.963Z,1024.67
2019-03-28T04:13:00.861Z,1024.69
2019-03-28T04:14:00.761Z,1024.67
2019-03-28T04:15:00.653Z,1024.70
2019-03-28T04:16:00.556Z,1024.69
2019-03-28T04:17:00.447Z,1024.68
2019-03-28T04:18:00.345Z,1024.68
2019-03-28T04:19:00.239Z,1024.70
2019-03-28T04:20:00.475Z,1024.72
2019-03-28T04:21:00.030Z,1024.69
2019-03-28T04:21:59.927Z,1024.68
2019-03-28T04:22:59.825Z,1024.68
2019-03-28T04:23:59.724Z,1024.74
2019-03-28T04:24:59.614Z,1024.71
2019-03-28T04:25:59.511Z,1024.75
2019-03-28T04:26:59.407Z,1024.77
2019-03-28T04:27:59.341Z,1024.78
2019-03-28T04:28:59.201Z,1024.76
2019-03-28T04:29:59.108Z,1024.80
2019-03-28T04:30:58.993Z,1024.73
2019-03-28T04:31:58.890Z,1024.78
2019-03-28T04:32:58.894Z,1024.79
2019-03-28T04:33:58.685Z,1024.76
2019-03-28T04:34:59.548Z,1024.82
2019-03-28T04:35:58.475Z,1024.77
2019-03-28T04:36:58.370Z,1024.84
2019-03-28T04:37:58.628Z,1024.78
2019-03-28T04:38:58.162Z,1024.87
2019-03-28T04:39:58.060Z,1024.85
2019-03-28T04:40:57.953Z,1024.87
2019-03-28T04:41:57.850Z,1024.89
2019-03-28T04:42:57.750Z,1024.92
2019-03-28T04:43:57.651Z,1024.92
2019-03-28T04:44:57.539Z,1024.92
2019-03-28T04:45:57.436Z,1024.94
2019-03-28T04:46:57.363Z,1024.93
2019-03-28T04:47:57.290Z,1024.94
2019-03-28T04:48:57.121Z,1024.99
2019-03-28T04:49:57.020Z,1024.97
2019-03-28T04:50:56.934Z,1024.99
2019-03-28T04:51:56.828Z,1024.95
2019-03-28T04:52:56.724Z,1025.01
2019-03-28T04:53:56.626Z,1024.99
2019-03-28T04:54:56.497Z,1025.00
2019-03-28T04:55:56.396Z,1025.05
2019-03-28T04:56:56.314Z,1025.04
2019-03-28T04:57:56.206Z,1024.99
2019-03-28T04:58:56.101Z,1025.01
2019-03-28T04:59:55.984Z,1025.02
2019-03-28T05:00:55.878Z,1025.05
2019-03-28T05:02:02.884Z,1024.99
2019-03-28T05:02:55.669Z,1025.04
2019-03-28T05:03:55.569Z,1024.98
2019-03-28T05:04:55.461Z,1025.05
2019-03-28T05:05:55.367Z,1025.07
2019-03-28T05:06:55.288Z,1025.09
2019-03-28T05:07:55.149Z,1025.02
2019-03-28T05:08:55.046Z,1025.04
2019-03-28T05:09:54.945Z,1025.00
2019-03-28T05:10:54.838Z,1025.04
2019-03-28T05:11:54.738Z,1025.06
2019-03-28T05:12:54.631Z,1025.05
2019-03-28T05:13:54.530Z,1025.08
2019-03-28T05:14:54.423Z,1025.08
2019-03-28T05:15:54.320Z,1025.08
2019-03-28T05:16:54.217Z,1025.11
2019-03-28T05:17:54.112Z,1025.13
2019-03-28T05:18:54.008Z,1025.14
2019-03-28T05:19:53.978Z,1025.13
2019-03-28T05:20:53.800Z,1025.11
2019-03-28T05:21:53.700Z,1025.12
2019-03-28T05:22:53.596Z,1025.18
2019-03-28T05:23:53.490Z,1025.16
2019-03-28T05:24:53.386Z,1025.18
2019-03-28T05:25:53.307Z,1025.17
2019-03-28T05:26:53.253Z,1025.15
2019-03-28T05:27:53.076Z,1025.19
2019-03-28T05:28:57.834Z,1025.18
2019-03-28T05:29:52.865Z,1025.17
2019-03-28T05:30:52.764Z,1025.23
2019-03-28T05:31:52.662Z,1025.23
2019-03-28T05:32:52.555Z,1025.22
2019-03-28T05:33:52.450Z,1025.17
2019-03-28T05:34:52.349Z,1025.23
2019-03-28T05:35:52.346Z,1025.24
2019-03-28T05:36:52.294Z,1025.24
2019-03-28T05:37:52.036Z,1025.19
2019-03-28T05:38:51.938Z,1025.18
2019-03-28T05:39:51.830Z,1025.24
2019-03-28T05:40:51.732Z,1025.25
2019-03-28T05:41:51.621Z,1025.23
2019-03-28T05:42:51.517Z,1025.22
2019-03-28T05:43:51.413Z,1025.22
2019-03-28T05:44:51.311Z,1025.24
2019-03-28T05:45:51.291Z,1025.25
2019-03-28T05:46:51.104Z,1025.27
2019-03-28T05:47:50.999Z,1025.30
2019-03-28T05:48:50.897Z,1025.30
2019-03-28T05:49:50.791Z,1025.34
2019-03-28T05:50:50.690Z,1025.37
2019-03-28T05:51:50.585Z,1025.37
2019-03-28T05:52:50.483Z,1025.38
2019-03-28T05:53:50.377Z,1025.38
2019-03-28T05:54:50.274Z,1025.35
2019-03-28T05:55:50.172Z,1025.39
2019-03-28T05:56:50.066Z,1025.35
2019-03-28T05:57:49.969Z,1025.40
2019-03-28T05:58:49.859Z,1025.36
2019-03-28T05:59:49.760Z,1025.36
2019-03-28T06:00:51.295Z,1025.32
2019-03-28T06:01:49.548Z,1025.41
2019-03-28T06:02:50.016Z,1025.44
2019-03-28T06:03:49.426Z,1025.44
2019-03-28T06:04:49.266Z,1025.47
2019-03-28T06:05:49.199Z,1025.50
2019-03-28T06:06:49.033Z,1025.50
2019-03-28T06:07:48.928Z,1025.54
2019-03-28T06:08:48.823Z,1025.53
2019-03-28T06:09:48.721Z,1025.52
2019-03-28T06:10:48.614Z,1025.52
2019-03-28T06:11:48.513Z,1025.57
2019-03-28T06:12:48.408Z,1025.58
2019-03-28T06:13:48.304Z,1025.61
2019-03-28T06:14:48.204Z,1025.60
2019-03-28T06:15:48.100Z,1025.62
2019-03-28T06:16:47.994Z,1025.62
2019-03-28T06:17:47.892Z,1025.69
2019-03-28T06:18:47.785Z,1025.66
2019-03-28T06:19:47.681Z,1025.71
2019-03-28T06:20:47.580Z,1025.69
2019-03-28T06:21:47.539Z,1025.67
2019-03-28T06:22:47.374Z,1025.72
2019-03-28T06:23:47.270Z,1025.72
2019-03-28T06:24:47.207Z,1025.75
2019-03-28T06:25:47.062Z,1025.76
2019-03-28T06:26:49.804Z,1025.79
2019-03-28T06:27:46.857Z,1025.79
2019-03-28T06:28:46.752Z,1025.79
2019-03-28T06:29:46.651Z,1025.84
2019-03-28T06:30:46.546Z,1025.83
2019-03-28T06:31:55.160Z,1025.85
2019-03-28T06:32:46.340Z,1025.86
2019-03-28T06:33:46.236Z,1025.89
2019-03-28T06:34:46.137Z,1025.88
2019-03-28T06:35:46.031Z,1025.90
2019-03-28T06:36:45.925Z,1025.93
2019-03-28T06:37:45.906Z,1025.95
2019-03-28T06:38:45.719Z,1025.97
2019-03-28T06:39:45.615Z,1025.95
2019-03-28T06:40:45.512Z,1025.97
2019-03-28T06:41:45.410Z,1025.92
2019-03-28T06:42:45.305Z,1025.92
2019-03-28T06:43:45.221Z,1025.96
2019-03-28T06:44:45.151Z,1025.97
2019-03-28T06:45:44.996Z,1025.96
2019-03-28T06:46:44.891Z,1025.95
2019-03-28T06:47:44.788Z,1025.96
2019-03-28T06:48:44.685Z,1025.97
2019-03-28T06:49:44.581Z,1026.01
2019-03-28T06:50:44.480Z,1025.97
2019-03-28T06:51:44.374Z,1025.99
2019-03-28T06:52:44.271Z,1026.02
2019-03-28T06:53:44.169Z,1026.04
2019-03-28T06:54:44.065Z,1026.02
2019-03-28T06:55:43.964Z,1026.04
2019-03-28T06:56:43.857Z,1026.02
2019-03-28T06:57:43.754Z,1026.03
2019-03-28T06:58:43.651Z,1026.05
2019-03-28T06:59:43.551Z,1026.05
2019-03-28T07:00:43.447Z,1026.06
2019-03-28T07:01:43.342Z,1026.07
2019-03-28T07:02:43.513Z,1026.08
2019-03-28T07:03:43.203Z,1026.14
2019-03-28T07:04:43.039Z,1026.12
2019-03-28T07:05:42.929Z,1026.07
2019-03-28T07:06:42.829Z,1026.11
2019-03-28T07:07:42.721Z,1026.11
2019-03-28T07:08:42.620Z,1026.08
2019-03-28T07:09:42.518Z,1026.09
2019-03-28T07:10:42.414Z,1026.10
2019-03-28T07:11:42.311Z,1026.09
2019-03-28T07:12:42.208Z,1026.10
2019-03-28T07:13:42.104Z,1026.09
2019-03-28T07:14:42.001Z,1026.10
2019-03-28T07:15:41.899Z,1026.14
2019-03-28T07:16:41.878Z,1026.10
2019-03-28T07:17:41.694Z,1026.17
2019-03-28T07:18:41.591Z,1026.19
2019-03-28T07:19:41.486Z,1026.19
2019-03-28T07:20:41.380Z,1026.15
2019-03-28T07:21:41.280Z,1026.17
2019-03-28T07:22:41.176Z,1026.16
2019-03-28T07:23:41.106Z,1026.15
2019-03-28T07:24:40.970Z,1026.14
2019-03-28T07:25:40.869Z,1026.14
2019-03-28T07:26:40.764Z,1026.14
2019-03-28T07:27:40.664Z,1026.15
2019-03-28T07:28:40.559Z,1026.20
2019-03-28T07:29:50.185Z,1026.17
2019-03-28T07:30:40.353Z,1026.22
2019-03-28T07:31:40.600Z,1026.26
2019-03-28T07:32:43.236Z,1026.23
2019-03-28T07:33:40.041Z,1026.30
2019-03-28T07:34:39.939Z,1026.27
2019-03-28T07:35:39.838Z,1026.27
2019-03-28T07:36:39.732Z,1026.27
2019-03-28T07:37:39.629Z,1026.30
2019-03-28T07:38:39.529Z,1026.25
2019-03-28T07:39:39.429Z,1026.32
2019-03-28T07:40:39.321Z,1026.29
2019-03-28T07:41:39.218Z,1026.25
2019-03-28T07:42:39.141Z,1026.28
2019-03-28T07:43:39.081Z,1026.32
2019-03-28T07:44:38.912Z,1026.36
2019-03-28T07:45:38.809Z,1026.36
2019-03-28T07:46:38.704Z,1026.38
2019-03-28T07:47:38.602Z,1026.36
2019-03-28T07:48:38.498Z,1026.43
2019-03-28T07:49:38.397Z,1026.43
2019-03-28T07:50:38.293Z,1026.42
2019-03-28T07:51:38.191Z,1026.42
2019-03-28T07:52:38.090Z,1026.44
2019-03-28T07:53:37.985Z,1026.42
2019-03-28T07:54:37.882Z,1026.43
2019-03-28T07:55:37.779Z,1026.42
2019-03-28T07:56:37.675Z,1026.41
2019-03-28T07:57:37.574Z,1026.40
2019-03-28T07:58:37.471Z,1026.40
2019-03-28T07:59:37.374Z,1026.44
2019-03-28T08:00:37.266Z,1026.41
2019-03-28T08:01:37.164Z,1026.45
2019-03-28T08:02:37.115Z,1026.42
2019-03-28T08:03:39.871Z,1026.47
2019-03-28T08:04:36.854Z,1026.47
2019-03-28T08:05:36.754Z,1026.43
2019-03-28T08:06:48.839Z,1026.50
2019-03-28T08:07:44.778Z,1026.48
2019-03-28T08:08:38.908Z,1026.48
2019-03-28T08:09:37.078Z,1026.43
2019-03-28T08:10:36.239Z,1026.50
2019-03-28T08:11:36.154Z,1026.48
2019-03-28T08:12:36.047Z,1026.45
2019-03-28T08:13:35.933Z,1026.43
2019-03-28T08:14:35.830Z,1026.51
2019-03-28T08:15:35.729Z,1026.51
2019-03-28T08:16:35.624Z,1026.49
2019-03-28T08:17:35.527Z,1026.46
2019-03-28T08:18:35.422Z,1026.47
2019-03-28T08:19:35.319Z,1026.50
2019-03-28T08:20:35.216Z,1026.53
2019-03-28T08:21:35.116Z,1026.50
2019-03-28T08:22:35.045Z,1026.55
2019-03-28T08:23:35.414Z,1026.53
2019-03-28T08:24:34.811Z,1026.53
2019-03-28T08:25:34.705Z,1026.52
2019-03-28T08:26:34.605Z,1026.58
2019-03-28T08:27:34.500Z,1026.55
2019-03-28T08:28:34.400Z,1026.55
2019-03-28T08:29:34.298Z,1026.59
2019-03-28T08:30:34.193Z,1026.60
2019-03-28T08:31:34.091Z,1026.57
2019-03-28T08:32:34.654Z,1026.58
2019-03-28T08:33:33.886Z,1026.61
2019-03-28T08:34:33.784Z,1026.60
2019-03-28T08:35:33.686Z,1026.63
2019-03-28T08:36:33.579Z,1026.64
2019-03-28T08:37:33.479Z,1026.65
2019-03-28T08:38:33.378Z,1026.66
2019-03-28T08:39:33.276Z,1026.64
2019-03-28T08:40:33.171Z,1026.70
2019-03-28T08:41:33.071Z,1026.67
2019-03-28T08:42:33.011Z,1026.69
2019-03-28T08:43:35.838Z,1026.73
2019-03-28T08:44:32.762Z,1026.69
2019-03-28T08:45:32.660Z,1026.72
2019-03-28T08:46:32.559Z,1026.73
2019-03-28T08:47:32.457Z,1026.76
2019-03-28T08:48:32.354Z,1026.77
2019-03-28T08:49:32.253Z,1026.75
2019-03-28T08:50:32.151Z,1026.77
2019-03-28T08:51:32.049Z,1026.78
2019-03-28T08:52:31.948Z,1026.76
2019-03-28T08:53:31.845Z,1026.78
2019-03-28T08:54:31.744Z,1026.77
2019-03-28T08:55:31.639Z,1026.77
2019-03-28T08:56:31.540Z,1026.78
2019-03-28T08:57:31.437Z,1026.85
2019-03-28T08:58:31.337Z,1026.82
2019-03-28T08:59:31.232Z,1026.90
2019-03-28T09:00:35.134Z,1026.93
2019-03-28T09:01:31.059Z,1026.92
2019-03-28T09:02:30.995Z,1026.93
2019-03-28T09:03:30.826Z,1026.91
2019-03-28T09:04:30.723Z,1026.92
2019-03-28T09:05:30.623Z,1026.91
2019-03-28T09:06:30.520Z,1026.92
2019-03-28T09:07:30.431Z,1026.88
2019-03-28T09:08:30.314Z,1026.89
2019-03-28T09:09:30.215Z,1026.93
2019-03-28T09:10:30.116Z,1026.93
2019-03-28T09:11:30.010Z,1026.94
2019-03-28T09:12:29.908Z,1026.92
2019-03-28T09:13:29.818Z,1026.86
2019-03-28T09:14:31.905Z,1026.88
2019-03-28T09:15:42.681Z,1026.87
2019-03-28T09:16:29.500Z,1026.85
2019-03-28T09:17:29.399Z,1026.84
2019-03-28T09:18:29.297Z,1026.88
2019-03-28T09:19:29.200Z,1026.88
2019-03-28T09:20:29.092Z,1026.85
2019-03-28T09:21:29.029Z,1026.83
2019-03-28T09:22:28.955Z,1026.83
2019-03-28T09:23:28.791Z,1026.83
2019-03-28T09:24:28.688Z,1026.83
2019-03-28T09:25:28.584Z,1026.88
2019-03-28T09:26:28.487Z,1026.87
2019-03-28T09:27:28.382Z,1026.86
2019-03-28T09:28:28.278Z,1026.84
2019-03-28T09:29:28.179Z,1026.83
2019-03-28T09:30:28.075Z,1026.83
2019-03-28T09:31:27.974Z,1026.80
2019-03-28T09:32:27.872Z,1026.82
2019-03-28T09:33:27.770Z,1026.82
2019-03-28T09:34:27.670Z,1026.81
2019-03-28T09:35:27.576Z,1026.80
2019-03-28T09:36:27.469Z,1026.83
2019-03-28T09:37:27.365Z,1026.83
2019-03-28T09:38:27.264Z,1026.82
2019-03-28T09:39:27.163Z,1026.81
2019-03-28T09:40:27.060Z,1026.80
2019-03-28T09:41:27.009Z,1026.83
2019-03-28T09:42:26.935Z,1026.85
2019-03-28T09:43:26.756Z,1026.84
2019-03-28T09:44:26.655Z,1026.86
2019-03-28T09:45:26.556Z,1026.83
2019-03-28T09:46:26.450Z,1026.82
2019-03-28T09:47:26.349Z,1026.77
2019-03-28T09:48:26.247Z,1026.77
2019-03-28T09:49:26.145Z,1026.76
2019-03-28T09:50:26.044Z,1026.75
2019-03-28T09:51:25.946Z,1026.73
2019-03-28T09:52:25.840Z,1026.74
2019-03-28T09:53:25.738Z,1026.80
2019-03-28T09:54:25.650Z,1026.73
2019-03-28T09:55:25.536Z,1026.76
2019-03-28T09:56:25.520Z,1026.78
2019-03-28T09:57:25.331Z,1026.76
2019-03-28T09:58:25.228Z,1026.76
2019-03-28T09:59:25.129Z,1026.74
2019-03-28T10:00:25.027Z,1026.73
2019-03-28T10:01:24.964Z,1026.75
2019-03-28T10:02:24.915Z,1026.73
2019-03-28T10:03:24.725Z,1026.72
2019-03-28T10:04:24.623Z,1026.70
2019-03-28T10:05:24.524Z,1026.69
2019-03-28T10:06:24.415Z,1026.76
2019-03-28T10:07:24.315Z,1026.70
2019-03-28T10:08:24.214Z,1026.74
2019-03-28T10:09:24.111Z,1026.78
2019-03-28T10:10:24.010Z,1026.79
2019-03-28T10:11:23.924Z,1026.76
2019-03-28T10:12:23.810Z,1026.78
2019-03-28T10:13:23.706Z,1026.74
2019-03-28T10:14:23.603Z,1026.78
2019-03-28T10:15:23.500Z,1026.79
2019-03-28T10:16:23.397Z,1026.81
2019-03-28T10:17:23.299Z,1026.82
2019-03-28T10:18:23.198Z,1026.84
2019-03-28T10:19:23.096Z,1026.84
2019-03-28T10:20:22.994Z,1026.87
2019-03-28T10:21:22.965Z,1026.89
2019-03-28T10:22:22.800Z,1026.87
2019-03-28T10:23:22.689Z,1026.89
2019-03-28T10:24:22.590Z,1026.90
2019-03-28T10:25:22.486Z,1026.88
2019-03-28T10:26:22.385Z,1026.85
2019-03-28T10:27:22.284Z,1026.89
2019-03-28T10:28:22.182Z,1026.86
2019-03-28T10:29:22.081Z,1026.86
2019-03-28T10:30:21.980Z,1026.88
2019-03-28T10:31:21.876Z,1026.93
2019-03-28T10:32:21.778Z,1026.92
2019-03-28T10:33:21.675Z,1026.93
2019-03-28T10:34:21.573Z,1026.95
2019-03-28T10:35:21.474Z,1026.94
2019-03-28T10:36:21.369Z,1026.93
2019-03-28T10:37:21.269Z,1026.93
2019-03-28T10:38:21.167Z,1026.86
2019-03-28T10:39:21.068Z,1026.88
2019-03-28T10:40:20.964Z,1026.87
2019-03-28T10:41:20.928Z,1026.88
2019-03-28T10:42:20.860Z,1026.86
2019-03-28T10:43:20.662Z,1026.87
2019-03-28T10:44:20.559Z,1026.85
2019-03-28T10:45:20.460Z,1026.89
2019-03-28T10:46:20.356Z,1026.91
2019-03-28T10:47:20.259Z,1026.93
2019-03-28T10:48:23.289Z,1026.98
2019-03-28T10:49:20.055Z,1026.98
2019-03-28T10:50:19.949Z,1026.97
2019-03-28T10:51:19.849Z,1026.97
2019-03-28T10:52:19.750Z,1026.96
2019-03-28T10:53:19.647Z,1026.94
2019-03-28T10:54:20.885Z,1026.97
2019-03-28T10:55:19.449Z,1026.97
2019-03-28T10:56:23.399Z,1027.00
2019-03-28T10:57:29.597Z,1027.01
2019-03-28T10:58:19.641Z,1026.99
2019-03-28T10:59:23.489Z,1027.03
2019-03-28T11:00:24.348Z,1026.96
2019-03-28T11:01:32.699Z,1026.96
2019-03-28T11:02:18.735Z,1026.95
2019-03-28T11:03:18.637Z,1026.92
2019-03-28T11:04:18.538Z,1027.01
2019-03-28T11:05:18.431Z,1027.01
2019-03-28T11:06:18.333Z,1027.04
2019-03-28T11:07:18.231Z,1026.99
2019-03-28T11:08:18.130Z,1026.99
2019-03-28T11:09:18.028Z,1027.00
2019-03-28T11:10:17.929Z,1027.00
2019-03-28T11:11:17.858Z,1026.96
2019-03-28T11:12:17.724Z,1027.01
2019-03-28T11:13:17.624Z,1026.99
2019-03-28T11:14:17.520Z,1027.02
2019-03-28T11:15:17.427Z,1026.96
2019-03-28T11:16:17.320Z,1027.06
2019-03-28T11:17:17.220Z,1027.04
2019-03-28T11:18:17.125Z,1027.05
2019-03-28T11:19:17.562Z,1027.09
2019-03-28T11:20:16.919Z,1027.09
2019-03-28T11:21:16.877Z,1027.10
2019-03-28T11:22:16.722Z,1027.06
2019-03-28T11:23:16.614Z,1027.08
2019-03-28T11:24:16.513Z,1027.09
2019-03-28T11:25:16.415Z,1027.11
2019-03-28T11:26:16.320Z,1027.12
2019-03-28T11:27:16.215Z,1027.08
2019-03-28T11:28:16.142Z,1027.10
2019-03-28T11:29:16.012Z,1027.11
2019-03-28T11:30:18.228Z,1027.15
2019-03-28T11:31:15.812Z,1027.12
2019-03-28T11:32:15.710Z,1027.13
2019-03-28T11:33:15.611Z,1027.15
2019-03-28T11:34:15.511Z,1027.13
2019-03-28T11:35:15.411Z,1027.17
2019-03-28T11:36:15.310Z,1027.17
2019-03-28T11:37:24.936Z,1027.18
2019-03-28T11:38:15.113Z,1027.13
2019-03-28T11:39:15.010Z,1027.16
2019-03-28T11:40:14.909Z,1027.17
2019-03-28T11:41:14.855Z,1027.21
2019-03-28T11:42:14.786Z,1027.19
2019-03-28T11:43:14.612Z,1027.18
2019-03-28T11:44:14.508Z,1027.23
2019-03-28T11:45:14.408Z,1027.22
2019-03-28T11:46:14.309Z,1027.25
2019-03-28T11:47:14.209Z,1027.24
2019-03-28T11:48:14.109Z,1027.30
2019-03-28T11:49:14.007Z,1027.27
2019-03-28T11:50:16.842Z,1027.27
2019-03-28T11:51:13.808Z,1027.31
2019-03-28T11:52:13.706Z,1027.28
2019-03-28T11:53:13.605Z,1027.29
2019-03-28T11:54:13.505Z,1027.30
2019-03-28T11:55:13.405Z,1027.30
2019-03-28T11:56:13.305Z,1027.34
2019-03-28T11:57:15.691Z,1027.35
2019-03-28T11:58:13.104Z,1027.32
2019-03-28T11:59:13.004Z,1027.31
2019-03-28T12:00:12.902Z,1027.36
2019-03-28T12:01:12.830Z,1027.35
2019-03-28T12:02:19.797Z,1027.35
2019-03-28T12:03:12.600Z,1027.42
2019-03-28T12:04:12.504Z,1027.39